カーブル の空港の天気 - METARとTAF

カーブル国際空港 ( OAKB / KBL ) - アフガニスタン カーブル
飛行場実況気象(Metar)
観測時間10/23 17:20 AFT (10/23 12:50 UTC)
風向・風速北北東 4m/s
視程10km以上
天気現象
少しの雲 雲底高度 3660m
気温18℃
湿度13%
気圧1018hPa
METAROAKB 231250Z 03007KT 9999 FEW120 18/M11 Q1018 NOSIG RMK A3009 BLU BLU
過去の天気等 Google飛行場航空写真 Wunderground天気予報

過去48時間のMETAR

飛行場予報(TAF)
発表時間: 10/23 15:35 AFT (10/23 11:05 UTC)
予報対象時間: 23日16時 AFT ~ 24日16時 AFT
風向・風速不定 1m/s
視程10km以上
少しの雲 雲底高度 3,350m
23日19時 AFT ~ 23日21時 AFT に徐々に
視程6,000m
なし
24日5時 AFT ~ 24日9時 AFT に 確率 30% で一時的に
視程4,000m
天気現象
24日11時 AFT ~ 24日13時 AFT に徐々に
風向・風速北 6m/s 瞬間風速 11m/s
視程10km以上
少しの雲 雲底高度 3,350m
TAF OAKB 231105Z 2312/2412 VRB02KT 9999 FEW110
BECMG 2315/2317 6000 NSC
PROB30 TEMPO 2401/2405 4000 FU
BECMG 2407/2409 35012G22KT 9999 FEW110